createdAt,value
2019-01-04T00:00:21.723Z,1032.93
2019-01-04T00:01:21.706Z,1032.91
2019-01-04T00:02:21.626Z,1032.92
2019-01-04T00:03:21.591Z,1032.95
2019-01-04T00:04:21.544Z,1032.95
2019-01-04T00:05:21.499Z,1033.01
2019-01-04T00:06:21.470Z,1033.01
2019-01-04T00:07:21.398Z,1033.02
2019-01-04T00:08:21.353Z,1033.00
2019-01-04T00:09:21.308Z,1032.95
2019-01-04T00:10:21.272Z,1032.96
2019-01-04T00:11:21.222Z,1032.95
2019-01-04T00:12:21.207Z,1032.96
2019-01-04T00:13:21.154Z,1032.96
2019-01-04T00:14:21.079Z,1032.96
2019-01-04T00:15:21.039Z,1032.91
2019-01-04T00:16:20.991Z,1032.95
2019-01-04T00:17:20.946Z,1032.94
2019-01-04T00:18:20.933Z,1032.90
2019-01-04T00:19:20.865Z,1032.91
2019-01-04T00:20:20.811Z,1032.87
2019-01-04T00:21:20.766Z,1032.92
2019-01-04T00:22:20.728Z,1032.86
2019-01-04T00:23:20.678Z,1032.85
2019-01-04T00:24:20.658Z,1032.87
2019-01-04T00:25:20.589Z,1032.88
2019-01-04T00:26:20.535Z,1032.91
2019-01-04T00:27:20.497Z,1032.89
2019-01-04T00:28:20.446Z,1032.89
2019-01-04T00:29:20.445Z,1032.92
2019-01-04T00:30:20.361Z,1032.97
2019-01-04T00:31:20.318Z,1032.95
2019-01-04T00:32:20.276Z,1032.98
2019-01-04T00:33:20.226Z,1033.01
2019-01-04T00:34:20.196Z,1033.04
2019-01-04T00:35:20.133Z,1033.09
2019-01-04T00:36:20.090Z,1033.10
2019-01-04T00:37:20.045Z,1033.08
2019-01-04T00:38:19.988Z,1033.11
2019-01-04T00:39:19.980Z,1033.11
2019-01-04T00:40:19.904Z,1033.15
2019-01-04T00:41:19.857Z,1033.15
2019-01-04T00:42:19.818Z,1033.12
2019-01-04T00:43:19.772Z,1033.12
2019-01-04T00:44:19.749Z,1033.13
2019-01-04T00:45:19.682Z,1033.13
2019-01-04T00:46:19.635Z,1033.15
2019-01-04T00:47:28.919Z,1033.11
2019-01-04T00:48:19.554Z,1033.09
2019-01-04T00:49:19.537Z,1033.08
2019-01-04T00:50:19.509Z,1033.06
2019-01-04T00:51:19.455Z,1033.06
2019-01-04T00:52:19.382Z,1033.04
2019-01-04T00:53:19.383Z,1033.04
2019-01-04T00:54:19.288Z,1033.06
2019-01-04T00:55:19.250Z,1033.03
2019-01-04T00:56:19.197Z,1033.04
2019-01-04T00:57:19.175Z,1033.01
2019-01-04T00:58:19.133Z,1033.05
2019-01-04T00:59:19.078Z,1033.04
2019-01-04T01:00:19.020Z,1033.04
2019-01-04T01:01:19.010Z,1033.06
2019-01-04T01:02:18.924Z,1033.05
2019-01-04T01:03:18.911Z,1033.04
2019-01-04T01:04:18.836Z,1033.11
2019-01-04T01:05:18.793Z,1033.16
2019-01-04T01:06:18.783Z,1033.15
2019-01-04T01:07:18.741Z,1033.12
2019-01-04T01:08:18.659Z,1033.11
2019-01-04T01:09:18.606Z,1033.12
2019-01-04T01:10:18.590Z,1033.10
2019-01-04T01:11:18.535Z,1033.05
2019-01-04T01:12:18.533Z,1033.05
2019-01-04T01:13:18.462Z,1033.07
2019-01-04T01:14:18.385Z,1033.05
2019-01-04T01:15:18.342Z,1033.05
2019-01-04T01:16:18.303Z,1033.04
2019-01-04T01:17:18.250Z,1033.04
2019-01-04T01:18:18.229Z,1033.02
2019-01-04T01:19:18.170Z,1033.02
2019-01-04T01:20:18.112Z,1033.00
2019-01-04T01:21:18.106Z,1033.02
2019-01-04T01:22:18.013Z,1033.05
2019-01-04T01:23:17.972Z,1033.03
2019-01-04T01:24:17.964Z,1033.05
2019-01-04T01:25:17.913Z,1033.04
2019-01-04T01:26:17.850Z,1033.06
2019-01-04T01:27:17.816Z,1033.03
2019-01-04T01:28:17.750Z,1033.06
2019-01-04T01:29:17.697Z,1033.05
2019-01-04T01:30:17.690Z,1033.04
2019-01-04T01:31:17.621Z,1033.07
2019-01-04T01:32:17.595Z,1033.06
2019-01-04T01:33:17.561Z,1033.05
2019-01-04T01:34:17.490Z,1033.07
2019-01-04T01:35:17.488Z,1033.05
2019-01-04T01:36:17.396Z,1033.05
2019-01-04T01:37:17.355Z,1033.04
2019-01-04T01:38:17.353Z,1033.05
2019-01-04T01:39:17.266Z,1033.05
2019-01-04T01:40:18.117Z,1032.99
2019-01-04T01:41:17.211Z,1033.00
2019-01-04T01:42:17.146Z,1032.99
2019-01-04T01:43:17.098Z,1033.01
2019-01-04T01:44:17.083Z,1033.06
2019-01-04T01:45:17.020Z,1033.09
2019-01-04T01:46:16.954Z,1033.10
2019-01-04T01:47:16.907Z,1033.12
2019-01-04T01:48:16.851Z,1033.12
2019-01-04T01:49:16.825Z,1033.14
2019-01-04T01:50:16.790Z,1033.15
2019-01-04T01:51:16.705Z,1033.19
2019-01-04T01:52:16.684Z,1033.20
2019-01-04T01:53:16.642Z,1033.20
2019-01-04T01:54:16.593Z,1033.24
2019-01-04T01:55:16.554Z,1033.22
2019-01-04T01:56:16.498Z,1033.27
2019-01-04T01:57:16.454Z,1033.27
2019-01-04T01:58:16.421Z,1033.23
2019-01-04T01:59:16.358Z,1033.22
2019-01-04T02:00:16.343Z,1033.22
2019-01-04T02:01:16.274Z,1033.21
2019-01-04T02:02:16.258Z,1033.20
2019-01-04T02:03:16.190Z,1033.18
2019-01-04T02:04:16.139Z,1033.16
2019-01-04T02:05:16.087Z,1033.18
2019-01-04T02:06:16.048Z,1033.13
2019-01-04T02:07:16.038Z,1033.21
2019-01-04T02:08:15.943Z,1033.21
2019-01-04T02:09:15.893Z,1033.21
2019-01-04T02:10:15.897Z,1033.22
2019-01-04T02:11:15.816Z,1033.24
2019-01-04T02:12:15.781Z,1033.29
2019-01-04T02:13:15.721Z,1033.34
2019-01-04T02:14:15.687Z,1033.35
2019-01-04T02:15:15.636Z,1033.37
2019-01-04T02:16:15.625Z,1033.37
2019-01-04T02:17:15.576Z,1033.33
2019-01-04T02:18:15.492Z,1033.36
2019-01-04T02:19:15.457Z,1033.34
2019-01-04T02:20:15.427Z,1033.36
2019-01-04T02:21:15.403Z,1033.37
2019-01-04T02:22:15.343Z,1033.34
2019-01-04T02:23:15.288Z,1033.37
2019-01-04T02:24:15.273Z,1033.34
2019-01-04T02:25:15.176Z,1033.34
2019-01-04T02:26:15.164Z,1033.36
2019-01-04T02:27:15.135Z,1033.30
2019-01-04T02:28:15.057Z,1033.30
2019-01-04T02:29:15.007Z,1033.29
2019-01-04T02:30:15.001Z,1033.30
2019-01-04T02:31:14.908Z,1033.30
2019-01-04T02:32:14.869Z,1033.26
2019-01-04T02:33:14.860Z,1033.25
2019-01-04T02:34:14.780Z,1033.26
2019-01-04T02:35:14.746Z,1033.27
2019-01-04T02:36:14.713Z,1033.18
2019-01-04T02:37:14.700Z,1033.18
2019-01-04T02:38:23.954Z,1033.20
2019-01-04T02:39:23.978Z,1033.18
2019-01-04T02:40:23.992Z,1033.17
2019-01-04T02:41:23.520Z,1033.14
2019-01-04T02:42:23.053Z,1033.11
2019-01-04T02:43:23.569Z,1033.07
2019-01-04T02:44:23.626Z,1033.08
2019-01-04T02:45:14.289Z,1033.10
2019-01-04T02:46:14.230Z,1033.11
2019-01-04T02:47:23.134Z,1033.10
2019-01-04T02:48:14.134Z,1033.13
2019-01-04T02:49:23.167Z,1033.10
2019-01-04T02:50:14.050Z,1033.10
2019-01-04T02:51:23.167Z,1033.10
2019-01-04T02:52:13.952Z,1033.11
2019-01-04T02:53:21.513Z,1033.14
2019-01-04T02:54:13.877Z,1033.15
2019-01-04T02:55:13.815Z,1033.19
2019-01-04T02:56:13.795Z,1033.23
2019-01-04T02:57:23.208Z,1033.20
2019-01-04T02:58:13.708Z,1033.20
2019-01-04T02:59:22.716Z,1033.19
2019-01-04T03:00:13.582Z,1033.17
2019-01-04T03:01:22.763Z,1033.15
2019-01-04T03:02:22.780Z,1033.16
2019-01-04T03:03:22.313Z,1033.15
2019-01-04T03:04:22.821Z,1033.11
2019-01-04T03:05:22.861Z,1033.08
2019-01-04T03:06:23.362Z,1033.09
2019-01-04T03:07:23.385Z,1033.13
2019-01-04T03:08:22.934Z,1033.09
2019-01-04T03:09:21.957Z,1033.09
2019-01-04T03:10:23.460Z,1033.09
2019-01-04T03:11:22.460Z,1033.09
2019-01-04T03:12:22.523Z,1033.11
2019-01-04T03:13:22.065Z,1033.09
2019-01-04T03:14:12.968Z,1033.09
2019-01-04T03:15:22.067Z,1033.09
2019-01-04T03:16:12.840Z,1033.04
2019-01-04T03:17:12.797Z,1033.06
2019-01-04T03:18:12.755Z,1033.04
2019-01-04T03:19:12.754Z,1033.03
2019-01-04T03:20:12.687Z,1033.04
2019-01-04T03:21:12.620Z,1033.06
2019-01-04T03:22:12.580Z,1033.02
2019-01-04T03:23:12.541Z,1033.00
2019-01-04T03:24:12.524Z,1033.04
2019-01-04T03:25:12.449Z,1033.03
2019-01-04T03:26:12.402Z,1033.01
2019-01-04T03:27:12.349Z,1033.05
2019-01-04T03:28:12.316Z,1033.02
2019-01-04T03:29:12.295Z,1033.05
2019-01-04T03:30:12.250Z,1033.07
2019-01-04T03:31:12.172Z,1033.05
2019-01-04T03:32:12.138Z,1033.07
2019-01-04T03:33:12.086Z,1033.03
2019-01-04T03:34:12.024Z,1033.01
2019-01-04T03:35:12.009Z,1033.00
2019-01-04T03:36:11.925Z,1033.00
2019-01-04T03:37:11.874Z,1033.01
2019-01-04T03:38:11.843Z,1033.00
2019-01-04T03:39:11.829Z,1032.98
2019-01-04T03:40:11.814Z,1032.96
2019-01-04T03:41:11.702Z,1033.00
2019-01-04T03:42:11.665Z,1033.01
2019-01-04T03:43:11.649Z,1033.01
2019-01-04T03:44:11.582Z,1032.99
2019-01-04T03:45:11.572Z,1032.99
2019-01-04T03:46:11.474Z,1033.02
2019-01-04T03:47:11.461Z,1033.03
2019-01-04T03:48:11.375Z,1033.01
2019-01-04T03:49:11.356Z,1032.99
2019-01-04T03:50:11.322Z,1032.99
2019-01-04T03:51:11.296Z,1032.98
2019-01-04T03:52:11.212Z,1032.93
2019-01-04T03:53:11.194Z,1032.91
2019-01-04T03:54:11.113Z,1032.94
2019-01-04T03:55:11.077Z,1032.91
2019-01-04T03:56:11.040Z,1032.86
2019-01-04T03:57:11.017Z,1032.90
2019-01-04T03:58:10.923Z,1032.88
2019-01-04T03:59:10.882Z,1032.83
2019-01-04T04:00:10.843Z,1032.84
2019-01-04T04:01:10.793Z,1032.85
2019-01-04T04:02:10.795Z,1032.83
2019-01-04T04:03:10.735Z,1032.83
2019-01-04T04:04:10.662Z,1032.83
2019-01-04T04:05:10.625Z,1032.79
2019-01-04T04:06:10.575Z,1032.80
2019-01-04T04:07:10.520Z,1032.85
2019-01-04T04:08:10.506Z,1032.82
2019-01-04T04:09:10.453Z,1032.82
2019-01-04T04:10:10.414Z,1032.78
2019-01-04T04:11:10.360Z,1032.79
2019-01-04T04:12:10.325Z,1032.76
2019-01-04T04:13:10.293Z,1032.77
2019-01-04T04:14:10.221Z,1032.70
2019-01-04T04:15:10.163Z,1032.73
2019-01-04T04:16:10.165Z,1032.72
2019-01-04T04:17:10.093Z,1032.69
2019-01-04T04:18:10.062Z,1032.73
2019-01-04T04:19:09.997Z,1032.69
2019-01-04T04:20:09.934Z,1032.71
2019-01-04T04:21:09.918Z,1032.73
2019-01-04T04:22:09.884Z,1032.75
2019-01-04T04:23:09.822Z,1032.76
2019-01-04T04:24:09.793Z,1032.74
2019-01-04T04:25:09.706Z,1032.75
2019-01-04T04:26:09.667Z,1032.72
2019-01-04T04:27:09.631Z,1032.70
2019-01-04T04:28:09.624Z,1032.66
2019-01-04T04:29:09.559Z,1032.66
2019-01-04T04:30:09.497Z,1032.64
2019-01-04T04:31:09.459Z,1032.63
2019-01-04T04:32:09.399Z,1032.70
2019-01-04T04:33:09.388Z,1032.64
2019-01-04T04:34:09.305Z,1032.66
2019-01-04T04:35:09.283Z,1032.66
2019-01-04T04:36:09.249Z,1032.64
2019-01-04T04:37:09.174Z,1032.63
2019-01-04T04:38:09.134Z,1032.67
2019-01-04T04:39:09.106Z,1032.69
2019-01-04T04:40:09.057Z,1032.67
2019-01-04T04:41:08.995Z,1032.70
2019-01-04T04:42:08.961Z,1032.75
2019-01-04T04:43:08.917Z,1032.76
2019-01-04T04:44:08.876Z,1032.77
2019-01-04T04:45:08.834Z,1032.75
2019-01-04T04:46:08.788Z,1032.71
2019-01-04T04:47:08.735Z,1032.74
2019-01-04T04:48:08.679Z,1032.73
2019-01-04T04:49:08.672Z,1032.71
2019-01-04T04:50:08.589Z,1032.66
2019-01-04T04:51:08.580Z,1032.63
2019-01-04T04:52:08.503Z,1032.69
2019-01-04T04:53:08.489Z,1032.70
2019-01-04T04:54:08.414Z,1032.70
2019-01-04T04:55:08.371Z,1032.74
2019-01-04T04:56:08.352Z,1032.78
2019-01-04T04:57:08.307Z,1032.72
2019-01-04T04:58:08.222Z,1032.73
2019-01-04T04:59:17.602Z,1032.73
2019-01-04T05:00:08.140Z,1032.73
2019-01-04T05:01:08.076Z,1032.77
2019-01-04T05:02:08.029Z,1032.73
2019-01-04T05:03:07.983Z,1032.73
2019-01-04T05:04:07.956Z,1032.72
2019-01-04T05:05:07.940Z,1032.69
2019-01-04T05:06:07.861Z,1032.65
2019-01-04T05:07:07.807Z,1032.70
2019-01-04T05:08:07.781Z,1032.73
2019-01-04T05:09:07.714Z,1032.66
2019-01-04T05:10:07.679Z,1032.65
2019-01-04T05:11:07.636Z,1032.62
2019-01-04T05:12:07.592Z,1032.61
2019-01-04T05:13:07.602Z,1032.64
2019-01-04T05:14:07.510Z,1032.58
2019-01-04T05:15:07.462Z,1032.61
2019-01-04T05:16:07.416Z,1032.58
2019-01-04T05:17:07.369Z,1032.58
2019-01-04T05:18:07.344Z,1032.53
2019-01-04T05:19:07.300Z,1032.50
2019-01-04T05:20:07.229Z,1032.48
2019-01-04T05:21:07.172Z,1032.47
2019-01-04T05:22:07.126Z,1032.50
2019-01-04T05:23:07.081Z,1032.46
2019-01-04T05:24:07.078Z,1032.48
2019-01-04T05:25:07.014Z,1032.51
2019-01-04T05:26:06.971Z,1032.53
2019-01-04T05:27:06.933Z,1032.57
2019-01-04T05:28:06.877Z,1032.58
2019-01-04T05:29:06.829Z,1032.62
2019-01-04T05:30:06.817Z,1032.65
2019-01-04T05:31:06.736Z,1032.66
2019-01-04T05:32:06.689Z,1032.70
2019-01-04T05:33:06.636Z,1032.74
2019-01-04T05:34:06.601Z,1032.75
2019-01-04T05:35:06.592Z,1032.75
2019-01-04T05:36:06.525Z,1032.76
2019-01-04T05:37:06.508Z,1032.76
2019-01-04T05:38:06.413Z,1032.78
2019-01-04T05:39:06.380Z,1032.72
2019-01-04T05:40:06.369Z,1032.72
2019-01-04T05:41:06.273Z,1032.69
2019-01-04T05:42:06.249Z,1032.70
2019-01-04T05:43:06.221Z,1032.72
2019-01-04T05:44:06.153Z,1032.70
2019-01-04T05:45:06.100Z,1032.69
2019-01-04T05:46:06.090Z,1032.69
2019-01-04T05:47:06.028Z,1032.66
2019-01-04T05:48:05.966Z,1032.70
2019-01-04T05:49:05.924Z,1032.72
2019-01-04T05:50:05.883Z,1032.74
2019-01-04T05:51:05.870Z,1032.76
2019-01-04T05:52:05.787Z,1032.73
2019-01-04T05:53:05.748Z,1032.71
2019-01-04T05:54:05.695Z,1032.73
2019-01-04T05:55:05.650Z,1032.74
2019-01-04T05:56:05.621Z,1032.76
2019-01-04T05:57:05.594Z,1032.82
2019-01-04T05:58:05.521Z,1032.76
2019-01-04T05:59:05.482Z,1032.75
2019-01-04T06:00:05.434Z,1032.77
2019-01-04T06:01:05.391Z,1032.69
2019-01-04T06:02:05.351Z,1032.65
2019-01-04T06:03:05.277Z,1032.61
2019-01-04T06:04:05.269Z,1032.56
2019-01-04T06:05:05.210Z,1032.59
2019-01-04T06:06:05.167Z,1032.55
2019-01-04T06:07:05.104Z,1032.58
2019-01-04T06:08:05.096Z,1032.58
2019-01-04T06:09:05.057Z,1032.58
2019-01-04T06:10:04.987Z,1032.52
2019-01-04T06:11:04.941Z,1032.51
2019-01-04T06:12:04.870Z,1032.49
2019-01-04T06:13:04.842Z,1032.43
2019-01-04T06:14:04.809Z,1032.40
2019-01-04T06:15:04.769Z,1032.48
2019-01-04T06:16:04.723Z,1032.44
2019-01-04T06:17:04.648Z,1032.50
2019-01-04T06:18:04.613Z,1032.46
2019-01-04T06:19:04.615Z,1032.46
2019-01-04T06:20:04.514Z,1032.44
2019-01-04T06:21:04.469Z,1032.43
2019-01-04T06:22:04.465Z,1032.44
2019-01-04T06:23:04.390Z,1032.48
2019-01-04T06:24:04.329Z,1032.47
2019-01-04T06:25:04.328Z,1032.43
2019-01-04T06:26:04.238Z,1032.44
2019-01-04T06:27:04.195Z,1032.44
2019-01-04T06:28:04.160Z,1032.46
2019-01-04T06:29:04.155Z,1032.44
2019-01-04T06:30:04.099Z,1032.44
2019-01-04T06:31:04.012Z,1032.41
2019-01-04T06:32:03.974Z,1032.41
2019-01-04T06:33:03.920Z,1032.39
2019-01-04T06:34:03.905Z,1032.38
2019-01-04T06:35:03.868Z,1032.40
2019-01-04T06:36:03.787Z,1032.40
2019-01-04T06:37:03.740Z,1032.38
2019-01-04T06:38:03.717Z,1032.35
2019-01-04T06:39:03.661Z,1032.32
2019-01-04T06:40:03.645Z,1032.24
2019-01-04T06:41:03.561Z,1032.22
2019-01-04T06:42:03.534Z,1032.22
2019-01-04T06:43:03.490Z,1032.25
2019-01-04T06:44:03.453Z,1032.27
2019-01-04T06:45:03.374Z,1032.29
2019-01-04T06:46:03.365Z,1032.32
2019-01-04T06:47:03.297Z,1032.31
2019-01-04T06:48:03.255Z,1032.32
2019-01-04T06:49:03.208Z,1032.27
2019-01-04T06:50:03.186Z,1032.22
2019-01-04T06:51:03.118Z,1032.20
2019-01-04T06:52:03.071Z,1032.13
2019-01-04T06:53:03.033Z,1032.14
2019-01-04T06:54:03.007Z,1032.17
2019-01-04T06:55:02.976Z,1032.26
2019-01-04T06:56:02.913Z,1032.33
2019-01-04T06:57:02.846Z,1032.43
2019-01-04T06:58:02.802Z,1032.41
2019-01-04T06:59:02.763Z,1032.40
2019-01-04T07:00:02.717Z,1032.42
2019-01-04T07:01:02.686Z,1032.44
2019-01-04T07:02:02.642Z,1032.44
2019-01-04T07:03:02.583Z,1032.45
2019-01-04T07:04:02.536Z,1032.46
2019-01-04T07:05:02.485Z,1032.44
2019-01-04T07:06:02.461Z,1032.45
2019-01-04T07:07:02.415Z,1032.42
2019-01-04T07:08:02.361Z,1032.42
2019-01-04T07:09:02.299Z,1032.46
2019-01-04T07:10:02.251Z,1032.52
2019-01-04T07:11:11.147Z,1032.51
2019-01-04T07:12:02.208Z,1032.48
2019-01-04T07:13:02.135Z,1032.44
2019-01-04T07:14:02.114Z,1032.47
2019-01-04T07:15:02.037Z,1032.46
2019-01-04T07:16:01.998Z,1032.54
2019-01-04T07:17:01.973Z,1032.55
2019-01-04T07:18:01.899Z,1032.56
2019-01-04T07:19:01.851Z,1032.54
2019-01-04T07:20:01.800Z,1032.56
2019-01-04T07:21:01.766Z,1032.57
2019-01-04T07:22:01.713Z,1032.55
2019-01-04T07:23:01.692Z,1032.55
2019-01-04T07:24:01.642Z,1032.55
2019-01-04T07:25:01.581Z,1032.49
2019-01-04T07:26:01.529Z,1032.48
2019-01-04T07:27:01.472Z,1032.45
2019-01-04T07:28:01.436Z,1032.46
2019-01-04T07:29:01.388Z,1032.52
2019-01-04T07:30:01.379Z,1032.55
2019-01-04T07:31:01.304Z,1032.57
2019-01-04T07:32:01.260Z,1032.62
2019-01-04T07:33:01.255Z,1032.64
2019-01-04T07:34:01.158Z,1032.64
2019-01-04T07:35:01.142Z,1032.63
2019-01-04T07:36:01.113Z,1032.59
2019-01-04T07:37:01.044Z,1032.56
2019-01-04T07:38:01.000Z,1032.59
2019-01-04T07:39:00.953Z,1032.51
2019-01-04T07:40:00.891Z,1032.53
2019-01-04T07:41:02.225Z,1032.50
2019-01-04T07:42:00.827Z,1032.50
2019-01-04T07:43:00.769Z,1032.54
2019-01-04T07:44:00.759Z,1032.61
2019-01-04T07:45:00.671Z,1032.60
2019-01-04T07:46:00.622Z,1032.64
2019-01-04T07:47:00.581Z,1032.66
2019-01-04T07:48:00.567Z,1032.70
2019-01-04T07:49:00.488Z,1032.70
2019-01-04T07:50:00.452Z,1032.70
2019-01-04T07:51:00.409Z,1032.68
2019-01-04T07:52:00.348Z,1032.71
2019-01-04T07:53:00.321Z,1032.73
2019-01-04T07:54:00.300Z,1032.75
2019-01-04T07:55:00.248Z,1032.71
2019-01-04T07:56:00.666Z,1032.69
2019-01-04T07:57:00.132Z,1032.69
2019-01-04T07:58:00.164Z,1032.67
2019-01-04T07:59:00.047Z,1032.68
2019-01-04T08:00:00.153Z,1032.68
2019-01-04T08:01:00.160Z,1032.69
2019-01-04T08:01:59.901Z,1032.65
2019-01-04T08:02:59.849Z,1032.67
2019-01-04T08:03:59.809Z,1032.68
2019-01-04T08:04:59.769Z,1032.59
2019-01-04T08:05:59.741Z,1032.61
2019-01-04T08:06:59.844Z,1032.61
2019-01-04T08:08:00.478Z,1032.64
2019-01-04T08:08:59.749Z,1032.68
2019-01-04T08:09:59.524Z,1032.71
2019-01-04T08:10:59.554Z,1032.76
2019-01-04T08:11:59.525Z,1032.82
2019-01-04T08:12:59.419Z,1032.80
2019-01-04T08:13:59.554Z,1032.74
2019-01-04T08:14:59.444Z,1032.75
2019-01-04T08:15:59.396Z,1032.72
2019-01-04T08:16:59.237Z,1032.68
2019-01-04T08:17:59.379Z,1032.66
2019-01-04T08:18:59.215Z,1032.65
2019-01-04T08:19:59.299Z,1032.67
2019-01-04T08:20:59.536Z,1032.65
2019-01-04T08:21:59.041Z,1032.63
2019-01-04T08:22:59.269Z,1032.65
2019-01-04T08:23:58.918Z,1032.69
2019-01-04T08:24:58.922Z,1032.74
2019-01-04T08:25:58.849Z,1032.76
2019-01-04T08:26:58.782Z,1032.78
2019-01-04T08:27:58.788Z,1032.72
2019-01-04T08:28:58.678Z,1032.70
2019-01-04T08:29:58.653Z,1032.67
2019-01-04T08:30:58.616Z,1032.68
2019-01-04T08:31:58.569Z,1032.67
2019-01-04T08:32:58.522Z,1032.69
2019-01-04T08:33:58.454Z,1032.72
2019-01-04T08:34:58.419Z,1032.74
2019-01-04T08:35:58.373Z,1032.72
2019-01-04T08:36:58.339Z,1032.68
2019-01-04T08:37:58.456Z,1032.66
2019-01-04T08:38:58.225Z,1032.69
2019-01-04T08:39:58.330Z,1032.69
2019-01-04T08:40:58.234Z,1032.71
2019-01-04T08:41:58.118Z,1032.70
2019-01-04T08:42:58.039Z,1032.70
2019-01-04T08:43:58.160Z,1032.66
2019-01-04T08:44:57.988Z,1032.67
2019-01-04T08:45:57.918Z,1032.71
2019-01-04T08:46:57.888Z,1032.71
2019-01-04T08:47:57.833Z,1032.74
2019-01-04T08:48:57.770Z,1032.72
2019-01-04T08:49:57.731Z,1032.70
2019-01-04T08:50:57.697Z,1032.65
2019-01-04T08:51:57.666Z,1032.64
2019-01-04T08:52:57.702Z,1032.68
2019-01-04T08:53:57.548Z,1032.70
2019-01-04T08:54:57.497Z,1032.67
2019-01-04T08:55:57.450Z,1032.66
2019-01-04T08:56:57.410Z,1032.65
2019-01-04T08:57:57.398Z,1032.61
2019-01-04T08:58:57.321Z,1032.59
2019-01-04T08:59:57.306Z,1032.61
2019-01-04T09:00:57.247Z,1032.62
2019-01-04T09:01:57.184Z,1032.60
2019-01-04T09:02:57.158Z,1032.61
2019-01-04T09:03:57.089Z,1032.62
2019-01-04T09:04:57.082Z,1032.63
2019-01-04T09:05:57.082Z,1032.60
2019-01-04T09:06:57.056Z,1032.62
2019-01-04T09:07:57.161Z,1032.61
2019-01-04T09:08:56.970Z,1032.61
2019-01-04T09:09:56.821Z,1032.61
2019-01-04T09:10:56.851Z,1032.57
2019-01-04T09:11:56.739Z,1032.52
2019-01-04T09:12:56.709Z,1032.51
2019-01-04T09:13:56.665Z,1032.52
2019-01-04T09:14:56.645Z,1032.47
2019-01-04T09:15:56.575Z,1032.48
2019-01-04T09:16:56.506Z,1032.40
2019-01-04T09:17:56.470Z,1032.38
2019-01-04T09:18:56.443Z,1032.39
2019-01-04T09:19:56.383Z,1032.39
2019-01-04T09:20:56.366Z,1032.36
2019-01-04T09:21:56.312Z,1032.35
2019-01-04T09:22:56.240Z,1032.37
2019-01-04T09:23:56.239Z,1032.34
2019-01-04T09:24:56.145Z,1032.35
2019-01-04T09:25:56.110Z,1032.37
2019-01-04T09:26:56.082Z,1032.42
2019-01-04T09:27:56.023Z,1032.40
2019-01-04T09:28:55.979Z,1032.42
2019-01-04T09:29:55.956Z,1032.42
2019-01-04T09:30:55.896Z,1032.48
2019-01-04T09:31:55.843Z,1032.45
2019-01-04T09:32:55.792Z,1032.41
2019-01-04T09:33:57.077Z,1032.42
2019-01-04T09:34:55.873Z,1032.38
2019-01-04T09:35:55.670Z,1032.38
2019-01-04T09:36:55.780Z,1032.37
2019-01-04T09:37:55.674Z,1032.37
2019-01-04T09:38:55.620Z,1032.28
2019-01-04T09:39:55.606Z,1032.29
2019-01-04T09:40:55.561Z,1032.22
2019-01-04T09:41:55.421Z,1032.27
2019-01-04T09:42:55.365Z,1032.30
2019-01-04T09:43:55.329Z,1032.25
2019-01-04T09:44:55.265Z,1032.25
2019-01-04T09:45:55.267Z,1032.28
2019-01-04T09:46:55.165Z,1032.27
2019-01-04T09:47:55.255Z,1032.27
2019-01-04T09:48:55.078Z,1032.26
2019-01-04T09:49:55.038Z,1032.26
2019-01-04T09:50:55.031Z,1032.16
2019-01-04T09:51:54.957Z,1032.14
2019-01-04T09:52:54.919Z,1032.11
2019-01-04T09:53:54.867Z,1032.10
2019-01-04T09:54:54.831Z,1032.12
2019-01-04T09:55:54.767Z,1032.09
2019-01-04T09:56:54.758Z,1032.04
2019-01-04T09:57:54.699Z,1032.04
2019-01-04T09:58:54.670Z,1032.01
2019-01-04T09:59:54.627Z,1031.99
2019-01-04T10:00:54.576Z,1032.02
2019-01-04T10:01:54.526Z,1031.95
2019-01-04T10:02:54.494Z,1031.98
2019-01-04T10:03:54.417Z,1032.02
2019-01-04T10:04:54.400Z,1031.99
2019-01-04T10:05:54.317Z,1031.97
2019-01-04T10:06:54.292Z,1032.01
2019-01-04T10:07:54.243Z,1032.01
2019-01-04T10:08:54.233Z,1031.97
2019-01-04T10:09:54.151Z,1031.96
2019-01-04T10:10:54.133Z,1031.95
2019-01-04T10:11:54.063Z,1031.98
2019-01-04T10:12:54.019Z,1031.94
2019-01-04T10:13:53.967Z,1031.90
2019-01-04T10:14:53.972Z,1031.91
2019-01-04T10:15:53.889Z,1031.86
2019-01-04T10:16:53.848Z,1031.86
2019-01-04T10:17:53.797Z,1031.87
2019-01-04T10:18:53.754Z,1031.83
2019-01-04T10:19:53.735Z,1031.80
2019-01-04T10:20:53.663Z,1031.81
2019-01-04T10:21:53.631Z,1031.76
2019-01-04T10:22:53.581Z,1031.75
2019-01-04T10:23:53.528Z,1031.82
2019-01-04T10:24:53.505Z,1031.79
2019-01-04T10:25:53.477Z,1031.75
2019-01-04T10:26:53.394Z,1031.69
2019-01-04T10:27:53.349Z,1031.66
2019-01-04T10:28:53.294Z,1031.68
2019-01-04T10:29:53.308Z,1031.64
2019-01-04T10:30:53.238Z,1031.61
2019-01-04T10:31:53.171Z,1031.62
2019-01-04T10:32:53.139Z,1031.55
2019-01-04T10:33:53.117Z,1031.56
2019-01-04T10:34:53.043Z,1031.56
2019-01-04T10:35:53.035Z,1031.50
2019-01-04T10:36:52.952Z,1031.45
2019-01-04T10:37:52.941Z,1031.46
2019-01-04T10:38:52.865Z,1031.49
2019-01-04T10:39:52.861Z,1031.49
2019-01-04T10:40:52.765Z,1031.47
2019-01-04T10:41:52.749Z,1031.51
2019-01-04T10:42:52.709Z,1031.50
2019-01-04T10:43:52.651Z,1031.48
2019-01-04T10:44:52.628Z,1031.43
2019-01-04T10:45:52.556Z,1031.39
2019-01-04T10:46:52.503Z,1031.40
2019-01-04T10:47:52.474Z,1031.35
2019-01-04T10:48:52.423Z,1031.36
2019-01-04T10:49:52.364Z,1031.32
2019-01-04T10:50:52.367Z,1031.31
2019-01-04T10:51:52.284Z,1031.28
2019-01-04T10:52:52.253Z,1031.19
2019-01-04T10:53:52.205Z,1031.21
2019-01-04T10:54:52.167Z,1031.22
2019-01-04T10:55:52.127Z,1031.28
2019-01-04T10:56:52.105Z,1031.22
2019-01-04T10:57:52.022Z,1031.27
2019-01-04T10:58:51.971Z,1031.28
2019-01-04T10:59:51.932Z,1031.24
2019-01-04T11:00:51.885Z,1031.26
2019-01-04T11:01:51.843Z,1031.23
2019-01-04T11:02:51.827Z,1031.18
2019-01-04T11:03:51.773Z,1031.16
2019-01-04T11:04:51.727Z,1031.14
2019-01-04T11:05:51.669Z,1031.12
2019-01-04T11:06:51.635Z,1031.14
2019-01-04T11:07:51.621Z,1031.10
2019-01-04T11:08:51.560Z,1031.06
2019-01-04T11:09:51.490Z,1031.01
2019-01-04T11:10:51.450Z,1031.02
2019-01-04T11:11:51.392Z,1031.07
2019-01-04T11:12:51.372Z,1031.05
2019-01-04T11:13:51.348Z,1031.07
2019-01-04T11:14:51.269Z,1031.11
2019-01-04T11:15:51.231Z,1031.10
2019-01-04T11:16:51.194Z,1031.08
2019-01-04T11:17:51.128Z,1031.02
2019-01-04T11:18:51.114Z,1031.00
2019-01-04T11:19:51.095Z,1031.01
2019-01-04T11:20:51.024Z,1030.99
2019-01-04T11:21:50.964Z,1030.96
2019-01-04T11:22:50.915Z,1030.94
2019-01-04T11:23:50.877Z,1030.93
2019-01-04T11:24:50.826Z,1030.90
2019-01-04T11:25:50.824Z,1030.88
2019-01-04T11:26:50.738Z,1030.89
2019-01-04T11:27:50.702Z,1030.89
2019-01-04T11:28:50.657Z,1030.90
2019-01-04T11:29:50.607Z,1030.90
2019-01-04T11:30:50.555Z,1030.89
2019-01-04T11:31:50.533Z,1030.90
2019-01-04T11:32:50.470Z,1030.91
2019-01-04T11:33:50.429Z,1030.91
2019-01-04T11:34:50.388Z,1030.92
2019-01-04T11:35:50.359Z,1030.88
2019-01-04T11:36:59.698Z,1030.88
2019-01-04T11:37:59.703Z,1030.93
2019-01-04T11:38:50.226Z,1030.91
2019-01-04T11:39:50.148Z,1030.94
2019-01-04T11:40:50.123Z,1030.95
2019-01-04T11:41:50.083Z,1030.97
2019-01-04T11:42:50.021Z,1030.94
2019-01-04T11:43:49.977Z,1030.91
2019-01-04T11:44:49.957Z,1030.96
2019-01-04T11:45:49.885Z,1030.91
2019-01-04T11:46:49.851Z,1030.91
2019-01-04T11:48:00.218Z,1030.85
2019-01-04T11:48:49.748Z,1030.84
2019-01-04T11:49:49.694Z,1030.82
2019-01-04T11:50:49.671Z,1030.86
2019-01-04T11:51:49.639Z,1030.80
2019-01-04T11:52:49.579Z,1030.80
2019-01-04T11:53:49.528Z,1030.85
2019-01-04T11:54:49.481Z,1030.77
2019-01-04T11:55:49.433Z,1030.76
2019-01-04T11:56:49.408Z,1030.73
2019-01-04T11:57:49.334Z,1030.77
2019-01-04T11:58:49.292Z,1030.73
2019-01-04T11:59:49.255Z,1030.75
2019-01-04T12:00:49.207Z,1030.75
2019-01-04T12:01:49.154Z,1030.72
2019-01-04T12:02:49.136Z,1030.72
2019-01-04T12:03:49.075Z,1030.65
2019-01-04T12:04:49.034Z,1030.68